KALM/ALM METAR and TAF weather

Enter ICAO airport designator
Station Type Date Time Source
KALM METAR 2019/02/23 17:15 UTC NOAA

KALM 231715Z AUTO 30004KT 10SM CLR 05/M08 A3017 RMK AO2


Station Type Date Time Source
KALM Decoded METAR 2019/02/23 17:15 UTC NOAA

Alamogordo-White, NM, United States (KALM) 32-50N 105-59W
Feb 23, 2019 - 12:15 PM EST / 2019.02.23 1715 UTC
Wind: from the WNW (300 degrees) at 5 MPH (4 KT):0
Visibility: 10 mile(s):0
Sky conditions: clear
Temperature: 41 F (5 C)
Dew Point: 17 F (-8 C)
Relative Humidity: 38%
Pressure (altimeter): 30.17 in. Hg (1021 hPa)
ob: KALM 231715Z AUTO 30004KT 10SM CLR 05/M08 A3017 RMK AO2
cycle: 17

Station Type Date Time Source
KALM TAF UTC NOAA

Error!


Example: see airport list